Aeroporto :
LOGIN :

Iscrizione | Disclaimer

   EN    FR    IT 

 










Sommario :    VFR   VFR Marginale   IFR   IFR Intensivo   IFR Molto Intensivo
Visibilità : 
Base nubi : 
>= 8 km
>= 3000ft
5 / 8 km
1000 / 3000 ft
1500m / 5 km
500 / 1000 ft
800 / 1500m
200 / 500 ft
< 800m
< 200 ft
Simboli :   Temporali  Nebbia  Neve Forte  Precipitazioni Forti  Vento > 20 kt
SIGMETs :   Varie  Temporali  Ghiacco  Turbolenza  Onda orograficha  Ceneri Vulcaniche







- Altitudine del aeroporto : 1465 ft


LSMP - Payerne

ULTIMO METAR :
  • 191550Z 04005KT 360V070 4600 BKN100 20/06 Q1025 RMK GRN

METARs OBSOLETI :
  • 191520Z 01005KT 330V060 9000 BKN099 21/05 Q1025 RMK BLU
  • 191450Z 01005KT 340V040 9000 SCT110 21/05 Q1025 RMK BLU+
  • 191420Z 02007KT 340V050 8000 FEW110 21/05 Q1025 RMK BLU+
  • 191350Z 02006KT 330V060 CAVOK 22/05 Q1025 RMK BLU
  • 191320Z VRB04KT CAVOK 21/06 Q1026 RMK BLU

Previsioni scadute.
Nessun NOTAM noto per questo aeroporto.



MetMap, La meteo Aeronautica in un colpo d'occhio ! - Copyright ORBIFLY Dicembre 2007 - Disclaimer

ORBIFLY MET'MAP TEAM :

Programmazione e sviluppo : Alexandra Zaïnal
Concezione e sviluppo : Baudouin d'Aumeries
Co-Programmazione e sviluppo : Marc-Olivier Méhu
Supporto tecnico e logistico : Manuel Goepfert
Aiuto per la traduzione : Arnaldo La Scala

Contatto : metmap@orbifly.com




FONTI E CREDITI :

   NOAA